sensor_id;sensor_type;location;lat;lon;timestamp;temperature;humidity
70079;DHT22;57451;52.496;13.456;2023-02-01T00:01:45;4.40;76.20
70079;DHT22;57451;52.496;13.456;2023-02-01T00:04:12;4.40;75.90
70079;DHT22;57451;52.496;13.456;2023-02-01T00:06:39;4.40;76.10
70079;DHT22;57451;52.496;13.456;2023-02-01T00:09:06;4.40;76.00
70079;DHT22;57451;52.496;13.456;2023-02-01T00:11:34;4.40;75.90
70079;DHT22;57451;52.496;13.456;2023-02-01T00:14:01;4.40;76.40
70079;DHT22;57451;52.496;13.456;2023-02-01T00:16:30;4.50;76.00
70079;DHT22;57451;52.496;13.456;2023-02-01T00:19:01;4.40;76.30
70079;DHT22;57451;52.496;13.456;2023-02-01T00:21:29;4.40;75.40
70079;DHT22;57451;52.496;13.456;2023-02-01T00:23:57;4.30;75.20
70079;DHT22;57451;52.496;13.456;2023-02-01T00:26:27;4.40;75.20
70079;DHT22;57451;52.496;13.456;2023-02-01T00:28:57;4.40;75.10
70079;DHT22;57451;52.496;13.456;2023-02-01T00:31:24;4.40;75.20
70079;DHT22;57451;52.496;13.456;2023-02-01T00:33:55;4.50;75.20
70079;DHT22;57451;52.496;13.456;2023-02-01T00:36:24;4.50;74.40
70079;DHT22;57451;52.496;13.456;2023-02-01T00:38:51;4.40;74.00
70079;DHT22;57451;52.496;13.456;2023-02-01T00:41:20;4.50;74.00
70079;DHT22;57451;52.496;13.456;2023-02-01T00:43:48;4.40;73.90
70079;DHT22;57451;52.496;13.456;2023-02-01T00:46:18;4.50;74.10
70079;DHT22;57451;52.496;13.456;2023-02-01T00:48:45;4.60;74.10
70079;DHT22;57451;52.496;13.456;2023-02-01T00:51:15;4.50;73.80
70079;DHT22;57451;52.496;13.456;2023-02-01T00:53:45;4.50;73.50
70079;DHT22;57451;52.496;13.456;2023-02-01T00:56:12;4.50;73.80
70079;DHT22;57451;52.496;13.456;2023-02-01T00:58:40;4.50;73.60
70079;DHT22;57451;52.496;13.456;2023-02-01T01:01:16;4.40;73.90
70079;DHT22;57451;52.496;13.456;2023-02-01T01:03:45;4.40;74.00
70079;DHT22;57451;52.496;13.456;2023-02-01T01:06:15;4.40;74.00
70079;DHT22;57451;52.496;13.456;2023-02-01T01:08:44;4.40;74.50
70079;DHT22;57451;52.496;13.456;2023-02-01T01:11:13;4.30;74.70
70079;DHT22;57451;52.496;13.456;2023-02-01T01:13:41;4.30;74.90
70079;DHT22;57451;52.496;13.456;2023-02-01T01:16:10;4.30;75.00
70079;DHT22;57451;52.496;13.456;2023-02-01T01:18:38;4.30;75.00
70079;DHT22;57451;52.496;13.456;2023-02-01T01:21:06;4.20;75.10
70079;DHT22;57451;52.496;13.456;2023-02-01T01:23:34;4.30;75.10
70079;DHT22;57451;52.496;13.456;2023-02-01T01:26:06;4.30;75.00
70079;DHT22;57451;52.496;13.456;2023-02-01T01:28:34;4.20;74.90
70079;DHT22;57451;52.496;13.456;2023-02-01T01:31:02;4.30;75.00
70079;DHT22;57451;52.496;13.456;2023-02-01T01:33:29;4.30;74.70
70079;DHT22;57451;52.496;13.456;2023-02-01T01:35:57;4.30;74.70
70079;DHT22;57451;52.496;13.456;2023-02-01T01:38:24;4.20;75.00
70079;DHT22;57451;52.496;13.456;2023-02-01T01:40:51;4.30;75.00
70079;DHT22;57451;52.496;13.456;2023-02-01T01:43:20;4.30;74.50
70079;DHT22;57451;52.496;13.456;2023-02-01T01:45:53;4.30;74.50
70079;DHT22;57451;52.496;13.456;2023-02-01T01:48:26;4.30;74.30
70079;DHT22;57451;52.496;13.456;2023-02-01T01:50:58;4.30;74.60
70079;DHT22;57451;52.496;13.456;2023-02-01T01:53:33;4.20;74.30
70079;DHT22;57451;52.496;13.456;2023-02-01T01:56:01;4.20;74.50
70079;DHT22;57451;52.496;13.456;2023-02-01T01:58:32;4.10;74.60
70079;DHT22;57451;52.496;13.456;2023-02-01T02:01:00;4.20;74.70
70079;DHT22;57451;52.496;13.456;2023-02-01T02:03:33;4.20;74.60
70079;DHT22;57451;52.496;13.456;2023-02-01T02:06:03;4.30;74.60
70079;DHT22;57451;52.496;13.456;2023-02-01T02:08:31;4.30;74.20
70079;DHT22;57451;52.496;13.456;2023-02-01T02:10:58;4.20;74.30
70079;DHT22;57451;52.496;13.456;2023-02-01T02:13:33;4.20;74.20
70079;DHT22;57451;52.496;13.456;2023-02-01T02:19:14;4.20;74.20
70079;DHT22;57451;52.496;13.456;2023-02-01T02:22:02;4.20;74.10
70079;DHT22;57451;52.496;13.456;2023-02-01T02:25:14;4.30;73.90
70079;DHT22;57451;52.496;13.456;2023-02-01T02:27:51;4.30;74.00
70079;DHT22;57451;52.496;13.456;2023-02-01T02:30:52;4.20;73.60
70079;DHT22;57451;52.496;13.456;2023-02-01T02:33:40;4.20;74.00
70079;DHT22;57451;52.496;13.456;2023-02-01T02:36:14;4.20;74.00
70079;DHT22;57451;52.496;13.456;2023-02-01T02:38:49;4.30;74.10
70079;DHT22;57451;52.496;13.456;2023-02-01T02:41:25;4.30;73.90
70079;DHT22;57451;52.496;13.456;2023-02-01T02:44:19;4.20;73.70
70079;DHT22;57451;52.496;13.456;2023-02-01T02:47:13;4.20;73.80
70079;DHT22;57451;52.496;13.456;2023-02-01T02:49:58;4.10;73.80
70079;DHT22;57451;52.496;13.456;2023-02-01T02:52:52;4.20;74.00
70079;DHT22;57451;52.496;13.456;2023-02-01T02:55:40;4.20;74.00
70079;DHT22;57451;52.496;13.456;2023-02-01T02:58:08;4.20;74.20
70079;DHT22;57451;52.496;13.456;2023-02-01T03:00:56;4.20;73.70
70079;DHT22;57451;52.496;13.456;2023-02-01T03:03:43;4.20;74.10
70079;DHT22;57451;52.496;13.456;2023-02-01T03:06:32;4.10;73.90
70079;DHT22;57451;52.496;13.456;2023-02-01T03:09:03;4.20;74.10
70079;DHT22;57451;52.496;13.456;2023-02-01T03:11:32;4.20;74.20
70079;DHT22;57451;52.496;13.456;2023-02-01T03:14:21;4.20;74.30
70079;DHT22;57451;52.496;13.456;2023-02-01T03:16:53;4.20;74.30
70079;DHT22;57451;52.496;13.456;2023-02-01T03:19:26;4.30;74.00
70079;DHT22;57451;52.496;13.456;2023-02-01T03:21:58;4.30;74.10
70079;DHT22;57451;52.496;13.456;2023-02-01T03:24:29;4.30;74.10
70079;DHT22;57451;52.496;13.456;2023-02-01T03:27:05;4.30;73.90
70079;DHT22;57451;52.496;13.456;2023-02-01T03:29:39;4.30;73.90
70079;DHT22;57451;52.496;13.456;2023-02-01T03:32:07;4.30;74.10
70079;DHT22;57451;52.496;13.456;2023-02-01T03:34:36;4.40;73.90
70079;DHT22;57451;52.496;13.456;2023-02-01T03:37:08;4.40;73.90
70079;DHT22;57451;52.496;13.456;2023-02-01T03:39:42;4.40;73.50
70079;DHT22;57451;52.496;13.456;2023-02-01T03:42:16;4.40;73.60
70079;DHT22;57451;52.496;13.456;2023-02-01T03:44:48;4.40;73.40
70079;DHT22;57451;52.496;13.456;2023-02-01T03:47:20;4.40;73.50
70079;DHT22;57451;52.496;13.456;2023-02-01T03:49:54;4.40;73.60
70079;DHT22;57451;52.496;13.456;2023-02-01T03:52:27;4.40;73.30
70079;DHT22;57451;52.496;13.456;2023-02-01T03:54:56;4.40;73.40
70079;DHT22;57451;52.496;13.456;2023-02-01T03:57:29;4.40;73.30
70079;DHT22;57451;52.496;13.456;2023-02-01T04:00:05;4.40;73.20
70079;DHT22;57451;52.496;13.456;2023-02-01T04:02:40;4.40;73.60
70079;DHT22;57451;52.496;13.456;2023-02-01T04:05:08;4.40;73.40
70079;DHT22;57451;52.496;13.456;2023-02-01T04:07:36;4.40;73.30
70079;DHT22;57451;52.496;13.456;2023-02-01T04:10:05;4.40;73.40
70079;DHT22;57451;52.496;13.456;2023-02-01T04:12:32;4.40;73.20
70079;DHT22;57451;52.496;13.456;2023-02-01T04:14:59;4.40;73.20
70079;DHT22;57451;52.496;13.456;2023-02-01T04:17:27;4.50;73.10
70079;DHT22;57451;52.496;13.456;2023-02-01T04:19:54;4.50;73.10
70079;DHT22;57451;52.496;13.456;2023-02-01T04:22:22;4.50;73.40
70079;DHT22;57451;52.496;13.456;2023-02-01T04:24:50;4.60;72.80
70079;DHT22;57451;52.496;13.456;2023-02-01T04:27:17;4.50;72.90
70079;DHT22;57451;52.496;13.456;2023-02-01T04:29:45;4.60;73.00
70079;DHT22;57451;52.496;13.456;2023-02-01T04:32:12;4.60;72.70
70079;DHT22;57451;52.496;13.456;2023-02-01T04:34:39;4.60;72.70
70079;DHT22;57451;52.496;13.456;2023-02-01T04:37:07;4.60;72.80
70079;DHT22;57451;52.496;13.456;2023-02-01T04:39:34;4.60;72.30
70079;DHT22;57451;52.496;13.456;2023-02-01T04:42:03;4.70;72.50
70079;DHT22;57451;52.496;13.456;2023-02-01T04:44:30;4.70;72.40
70079;DHT22;57451;52.496;13.456;2023-02-01T04:46:58;4.70;72.60
70079;DHT22;57451;52.496;13.456;2023-02-01T04:49:25;4.70;72.60
70079;DHT22;57451;52.496;13.456;2023-02-01T04:51:53;4.80;72.20
70079;DHT22;57451;52.496;13.456;2023-02-01T04:54:21;4.80;72.40
70079;DHT22;57451;52.496;13.456;2023-02-01T04:56:48;4.80;72.00
70079;DHT22;57451;52.496;13.456;2023-02-01T04:59:16;4.90;72.00
70079;DHT22;57451;52.496;13.456;2023-02-01T05:01:44;4.90;71.90
70079;DHT22;57451;52.496;13.456;2023-02-01T05:04:14;4.90;71.90
70079;DHT22;57451;52.496;13.456;2023-02-01T05:06:42;4.90;72.00
70079;DHT22;57451;52.496;13.456;2023-02-01T05:09:09;4.90;71.80
70079;DHT22;57451;52.496;13.456;2023-02-01T05:11:36;5.00;71.70
70079;DHT22;57451;52.496;13.456;2023-02-01T05:14:23;5.00;71.20
70079;DHT22;57451;52.496;13.456;2023-02-01T05:16:50;4.90;71.60
70079;DHT22;57451;52.496;13.456;2023-02-01T05:19:18;4.90;71.80
70079;DHT22;57451;52.496;13.456;2023-02-01T05:21:45;5.00;71.70
70079;DHT22;57451;52.496;13.456;2023-02-01T05:24:12;5.00;71.70
70079;DHT22;57451;52.496;13.456;2023-02-01T05:26:42;5.00;71.30
70079;DHT22;57451;52.496;13.456;2023-02-01T05:29:10;5.00;71.40
70079;DHT22;57451;52.496;13.456;2023-02-01T05:31:39;5.10;71.40
70079;DHT22;57451;52.496;13.456;2023-02-01T05:34:07;5.10;71.20
70079;DHT22;57451;52.496;13.456;2023-02-01T05:36:34;5.10;71.10
70079;DHT22;57451;52.496;13.456;2023-02-01T05:39:02;5.10;71.20
70079;DHT22;57451;52.496;13.456;2023-02-01T05:41:29;5.10;71.30
70079;DHT22;57451;52.496;13.456;2023-02-01T05:43:56;5.10;70.90
70079;DHT22;57451;52.496;13.456;2023-02-01T05:46:24;5.10;71.30
70079;DHT22;57451;52.496;13.456;2023-02-01T05:48:52;5.10;70.60
70079;DHT22;57451;52.496;13.456;2023-02-01T05:51:20;5.10;71.10
70079;DHT22;57451;52.496;13.456;2023-02-01T05:53:47;5.10;70.80
70079;DHT22;57451;52.496;13.456;2023-02-01T05:56:14;5.10;70.70
70079;DHT22;57451;52.496;13.456;2023-02-01T05:58:41;5.10;71.00
70079;DHT22;57451;52.496;13.456;2023-02-01T06:01:09;5.10;70.80
70079;DHT22;57451;52.496;13.456;2023-02-01T06:03:36;5.20;71.00
70079;DHT22;57451;52.496;13.456;2023-02-01T06:06:05;5.20;70.10
70079;DHT22;57451;52.496;13.456;2023-02-01T06:08:32;5.20;70.30
70079;DHT22;57451;52.496;13.456;2023-02-01T06:11:01;5.20;70.50
70079;DHT22;57451;52.496;13.456;2023-02-01T06:13:28;5.20;70.60
70079;DHT22;57451;52.496;13.456;2023-02-01T06:15:55;5.20;70.80
70079;DHT22;57451;52.496;13.456;2023-02-01T06:18:25;5.10;70.90
70079;DHT22;57451;52.496;13.456;2023-02-01T06:20:53;5.10;71.00
70079;DHT22;57451;52.496;13.456;2023-02-01T06:23:21;5.10;71.40
70079;DHT22;57451;52.496;13.456;2023-02-01T06:25:51;5.10;71.80
70079;DHT22;57451;52.496;13.456;2023-02-01T06:28:19;5.20;72.00
70079;DHT22;57451;52.496;13.456;2023-02-01T06:30:46;5.20;72.30
70079;DHT22;57451;52.496;13.456;2023-02-01T06:33:14;5.20;72.30
70079;DHT22;57451;52.496;13.456;2023-02-01T06:35:42;5.20;72.10
70079;DHT22;57451;52.496;13.456;2023-02-01T06:38:11;5.20;72.40
70079;DHT22;57451;52.496;13.456;2023-02-01T06:40:40;5.10;72.30
70079;DHT22;57451;52.496;13.456;2023-02-01T06:43:09;5.10;72.70
70079;DHT22;57451;52.496;13.456;2023-02-01T06:45:36;5.10;72.60
70079;DHT22;57451;52.496;13.456;2023-02-01T06:48:03;5.10;73.00
70079;DHT22;57451;52.496;13.456;2023-02-01T06:50:30;5.10;72.80
70079;DHT22;57451;52.496;13.456;2023-02-01T06:52:58;5.10;72.70
70079;DHT22;57451;52.496;13.456;2023-02-01T06:55:25;5.20;72.60
70079;DHT22;57451;52.496;13.456;2023-02-01T06:57:54;5.10;72.30
70079;DHT22;57451;52.496;13.456;2023-02-01T07:00:23;5.10;72.50
70079;DHT22;57451;52.496;13.456;2023-02-01T07:02:51;5.10;72.60
70079;DHT22;57451;52.496;13.456;2023-02-01T07:05:18;5.10;72.70
70079;DHT22;57451;52.496;13.456;2023-02-01T07:07:45;5.10;72.50
70079;DHT22;57451;52.496;13.456;2023-02-01T07:10:13;5.10;72.50
70079;DHT22;57451;52.496;13.456;2023-02-01T07:12:40;5.00;72.30
70079;DHT22;57451;52.496;13.456;2023-02-01T07:15:09;5.00;72.40
70079;DHT22;57451;52.496;13.456;2023-02-01T07:17:36;5.10;72.40
70079;DHT22;57451;52.496;13.456;2023-02-01T07:20:05;5.10;71.90
70079;DHT22;57451;52.496;13.456;2023-02-01T07:22:32;5.10;71.60
70079;DHT22;57451;52.496;13.456;2023-02-01T07:24:59;5.00;71.90
70079;DHT22;57451;52.496;13.456;2023-02-01T07:27:26;5.00;72.20
70079;DHT22;57451;52.496;13.456;2023-02-01T07:29:54;4.90;72.60
70079;DHT22;57451;52.496;13.456;2023-02-01T07:32:24;5.00;72.40
70079;DHT22;57451;52.496;13.456;2023-02-01T07:34:51;5.00;73.90
70079;DHT22;57451;52.496;13.456;2023-02-01T07:37:18;4.90;73.00
70079;DHT22;57451;52.496;13.456;2023-02-01T07:39:45;5.00;74.10
70079;DHT22;57451;52.496;13.456;2023-02-01T07:42:12;5.00;73.90
70079;DHT22;57451;52.496;13.456;2023-02-01T07:44:40;5.10;74.00
70079;DHT22;57451;52.496;13.456;2023-02-01T07:47:07;5.10;73.10
70079;DHT22;57451;52.496;13.456;2023-02-01T07:49:35;5.10;73.00
70079;DHT22;57451;52.496;13.456;2023-02-01T07:52:02;5.10;73.50
70079;DHT22;57451;52.496;13.456;2023-02-01T07:54:30;5.10;73.80
70079;DHT22;57451;52.496;13.456;2023-02-01T07:56:57;5.10;73.90
70079;DHT22;57451;52.496;13.456;2023-02-01T07:59:24;5.10;74.20
70079;DHT22;57451;52.496;13.456;2023-02-01T08:01:51;5.00;74.80
70079;DHT22;57451;52.496;13.456;2023-02-01T08:04:19;5.00;75.10
70079;DHT22;57451;52.496;13.456;2023-02-01T08:06:48;5.00;75.50
70079;DHT22;57451;52.496;13.456;2023-02-01T08:09:15;4.90;75.90
70079;DHT22;57451;52.496;13.456;2023-02-01T08:11:42;4.90;76.10
70079;DHT22;57451;52.496;13.456;2023-02-01T08:14:10;4.80;75.80
70079;DHT22;57451;52.496;13.456;2023-02-01T08:16:38;4.80;76.40
70079;DHT22;57451;52.496;13.456;2023-02-01T08:19:06;4.80;76.80
70079;DHT22;57451;52.496;13.456;2023-02-01T08:21:33;4.80;76.60
70079;DHT22;57451;52.496;13.456;2023-02-01T08:24:07;4.80;77.00
70079;DHT22;57451;52.496;13.456;2023-02-01T08:26:35;4.70;77.00
70079;DHT22;57451;52.496;13.456;2023-02-01T08:29:05;4.60;77.40
70079;DHT22;57451;52.496;13.456;2023-02-01T08:31:32;4.60;77.80
70079;DHT22;57451;52.496;13.456;2023-02-01T08:34:02;4.70;77.80
70079;DHT22;57451;52.496;13.456;2023-02-01T08:36:32;4.70;77.80
70079;DHT22;57451;52.496;13.456;2023-02-01T08:39:00;4.60;78.20
70079;DHT22;57451;52.496;13.456;2023-02-01T08:41:30;4.60;78.50
70079;DHT22;57451;52.496;13.456;2023-02-01T08:43:57;4.50;78.50
70079;DHT22;57451;52.496;13.456;2023-02-01T08:46:25;4.60;78.90
70079;DHT22;57451;52.496;13.456;2023-02-01T08:48:52;4.60;78.80
70079;DHT22;57451;52.496;13.456;2023-02-01T08:51:21;4.60;78.70
70079;DHT22;57451;52.496;13.456;2023-02-01T08:53:53;4.70;78.90
70079;DHT22;57451;52.496;13.456;2023-02-01T08:56:20;4.60;78.90
70079;DHT22;57451;52.496;13.456;2023-02-01T08:58:49;4.60;79.30
70079;DHT22;57451;52.496;13.456;2023-02-01T09:01:17;4.60;79.40
70079;DHT22;57451;52.496;13.456;2023-02-01T09:03:44;4.60;79.50
70079;DHT22;57451;52.496;13.456;2023-02-01T09:06:14;4.60;79.30
70079;DHT22;57451;52.496;13.456;2023-02-01T09:08:42;4.60;79.50
70079;DHT22;57451;52.496;13.456;2023-02-01T09:11:12;4.60;79.70
70079;DHT22;57451;52.496;13.456;2023-02-01T09:13:39;4.40;79.60
70079;DHT22;57451;52.496;13.456;2023-02-01T09:16:09;4.50;80.10
70079;DHT22;57451;52.496;13.456;2023-02-01T09:18:36;4.40;80.00
70079;DHT22;57451;52.496;13.456;2023-02-01T09:21:21;4.50;80.10
70079;DHT22;57451;52.496;13.456;2023-02-01T09:23:50;4.50;79.90
70079;DHT22;57451;52.496;13.456;2023-02-01T09:26:18;4.60;79.80
70079;DHT22;57451;52.496;13.456;2023-02-01T09:28:49;4.60;79.80
70079;DHT22;57451;52.496;13.456;2023-02-01T09:31:18;4.60;80.00
70079;DHT22;57451;52.496;13.456;2023-02-01T09:33:45;4.60;79.90
70079;DHT22;57451;52.496;13.456;2023-02-01T09:36:13;4.70;80.00
70079;DHT22;57451;52.496;13.456;2023-02-01T09:38:40;4.70;79.60
70079;DHT22;57451;52.496;13.456;2023-02-01T09:41:26;4.70;79.50
70079;DHT22;57451;52.496;13.456;2023-02-01T09:44:04;4.70;79.30
70079;DHT22;57451;52.496;13.456;2023-02-01T09:46:36;4.70;79.40
70079;DHT22;57451;52.496;13.456;2023-02-01T09:49:05;4.50;79.60
70079;DHT22;57451;52.496;13.456;2023-02-01T09:51:37;4.60;79.60
70079;DHT22;57451;52.496;13.456;2023-02-01T09:54:09;4.60;79.60
70079;DHT22;57451;52.496;13.456;2023-02-01T09:56:42;4.70;79.30
70079;DHT22;57451;52.496;13.456;2023-02-01T09:59:22;4.70;78.80
70079;DHT22;57451;52.496;13.456;2023-02-01T10:01:52;4.60;78.80
70079;DHT22;57451;52.496;13.456;2023-02-01T10:04:19;4.60;78.70
70079;DHT22;57451;52.496;13.456;2023-02-01T10:06:56;4.60;79.00
70079;DHT22;57451;52.496;13.456;2023-02-01T10:09:44;4.60;78.70
70079;DHT22;57451;52.496;13.456;2023-02-01T10:12:34;4.70;78.70
70079;DHT22;57451;52.496;13.456;2023-02-01T10:15:17;4.70;78.70
70079;DHT22;57451;52.496;13.456;2023-02-01T10:18:00;4.70;78.60
70079;DHT22;57451;52.496;13.456;2023-02-01T10:20:37;4.70;78.90
70079;DHT22;57451;52.496;13.456;2023-02-01T10:23:20;4.70;78.80
70079;DHT22;57451;52.496;13.456;2023-02-01T10:26:05;4.70;79.00
70079;DHT22;57451;52.496;13.456;2023-02-01T10:28:38;4.70;79.10
70079;DHT22;57451;52.496;13.456;2023-02-01T10:31:08;4.70;79.30
70079;DHT22;57451;52.496;13.456;2023-02-01T10:33:41;4.70;79.30
70079;DHT22;57451;52.496;13.456;2023-02-01T10:36:15;4.70;79.30
70079;DHT22;57451;52.496;13.456;2023-02-01T10:38:44;4.70;79.40
70079;DHT22;57451;52.496;13.456;2023-02-01T10:41:13;4.80;79.40
70079;DHT22;57451;52.496;13.456;2023-02-01T10:43:42;4.80;79.50
70079;DHT22;57451;52.496;13.456;2023-02-01T10:46:10;4.80;79.10
70079;DHT22;57451;52.496;13.456;2023-02-01T10:48:39;4.80;79.40
70079;DHT22;57451;52.496;13.456;2023-02-01T10:51:14;4.80;79.40
70079;DHT22;57451;52.496;13.456;2023-02-01T10:53:47;4.80;79.30
70079;DHT22;57451;52.496;13.456;2023-02-01T10:56:22;4.90;79.10
70079;DHT22;57451;52.496;13.456;2023-02-01T10:58:50;4.90;79.30
70079;DHT22;57451;52.496;13.456;2023-02-01T11:01:20;4.80;78.90
70079;DHT22;57451;52.496;13.456;2023-02-01T11:03:54;4.80;78.80
70079;DHT22;57451;52.496;13.456;2023-02-01T11:06:27;4.80;79.20
70079;DHT22;57451;52.496;13.456;2023-02-01T11:08:57;4.80;78.70
70079;DHT22;57451;52.496;13.456;2023-02-01T11:11:25;4.80;79.10
70079;DHT22;57451;52.496;13.456;2023-02-01T11:13:55;4.80;79.30
70079;DHT22;57451;52.496;13.456;2023-02-01T11:16:30;4.90;79.40
70079;DHT22;57451;52.496;13.456;2023-02-01T11:18:59;4.80;79.30
70079;DHT22;57451;52.496;13.456;2023-02-01T11:21:27;4.80;79.70
70079;DHT22;57451;52.496;13.456;2023-02-01T11:23:55;4.80;80.00
70079;DHT22;57451;52.496;13.456;2023-02-01T11:26:27;4.80;80.10
70079;DHT22;57451;52.496;13.456;2023-02-01T11:28:58;4.90;80.40
70079;DHT22;57451;52.496;13.456;2023-02-01T11:31:27;5.00;80.10
70079;DHT22;57451;52.496;13.456;2023-02-01T11:34:00;5.00;80.00
70079;DHT22;57451;52.496;13.456;2023-02-01T11:36:32;5.10;79.80
70079;DHT22;57451;52.496;13.456;2023-02-01T11:39:22;5.10;79.40
70079;DHT22;57451;52.496;13.456;2023-02-01T11:42:01;5.30;79.70
70079;DHT22;57451;52.496;13.456;2023-02-01T11:44:33;5.40;78.60
70079;DHT22;57451;52.496;13.456;2023-02-01T11:47:21;5.60;79.00
70079;DHT22;57451;52.496;13.456;2023-02-01T11:49:51;5.70;78.20
70079;DHT22;57451;52.496;13.456;2023-02-01T11:52:41;5.80;77.20
70079;DHT22;57451;52.496;13.456;2023-02-01T11:55:20;5.90;76.60
70079;DHT22;57451;52.496;13.456;2023-02-01T11:58:02;6.00;76.60
70079;DHT22;57451;52.496;13.456;2023-02-01T12:00:44;6.10;76.40
70079;DHT22;57451;52.496;13.456;2023-02-01T12:03:38;6.20;75.20
70079;DHT22;57451;52.496;13.456;2023-02-01T12:06:13;6.20;75.40
70079;DHT22;57451;52.496;13.456;2023-02-01T12:09:15;6.30;74.90
70079;DHT22;57451;52.496;13.456;2023-02-01T12:11:53;6.30;74.10
70079;DHT22;57451;52.496;13.456;2023-02-01T12:14:36;6.40;73.60
70079;DHT22;57451;52.496;13.456;2023-02-01T12:17:30;6.40;73.80
70079;DHT22;57451;52.496;13.456;2023-02-01T12:20:17;6.60;74.50
70079;DHT22;57451;52.496;13.456;2023-02-01T12:22:59;6.80;72.90
70079;DHT22;57451;52.496;13.456;2023-02-01T12:25:38;6.70;72.80
70079;DHT22;57451;52.496;13.456;2023-02-01T12:28:27;6.80;72.50
70079;DHT22;57451;52.496;13.456;2023-02-01T12:31:22;6.80;71.40
70079;DHT22;57451;52.496;13.456;2023-02-01T12:34:06;6.70;71.50
70079;DHT22;57451;52.496;13.456;2023-02-01T12:36:41;6.70;71.30
70079;DHT22;57451;52.496;13.456;2023-02-01T12:39:21;6.70;70.90
70079;DHT22;57451;52.496;13.456;2023-02-01T12:41:53;6.60;70.50
70079;DHT22;57451;52.496;13.456;2023-02-01T12:44:35;6.60;71.20
70079;DHT22;57451;52.496;13.456;2023-02-01T12:47:08;6.50;71.50
70079;DHT22;57451;52.496;13.456;2023-02-01T12:49:46;6.50;71.20
70079;DHT22;57451;52.496;13.456;2023-02-01T12:52:20;6.50;70.60
70079;DHT22;57451;52.496;13.456;2023-02-01T12:54:55;6.40;71.20
70079;DHT22;57451;52.496;13.456;2023-02-01T12:57:26;6.40;71.40
70079;DHT22;57451;52.496;13.456;2023-02-01T13:00:01;6.50;70.90
70079;DHT22;57451;52.496;13.456;2023-02-01T13:02:37;6.40;70.40
70079;DHT22;57451;52.496;13.456;2023-02-01T13:05:14;6.40;70.50
70079;DHT22;57451;52.496;13.456;2023-02-01T13:07:47;6.30;70.40
70079;DHT22;57451;52.496;13.456;2023-02-01T13:10:21;6.30;70.20
70079;DHT22;57451;52.496;13.456;2023-02-01T13:12:56;6.30;70.70
70079;DHT22;57451;52.496;13.456;2023-02-01T13:15:28;6.30;70.30
70079;DHT22;57451;52.496;13.456;2023-02-01T13:18:00;6.40;70.50
70079;DHT22;57451;52.496;13.456;2023-02-01T13:20:30;6.40;70.10
70079;DHT22;57451;52.496;13.456;2023-02-01T13:23:03;6.40;70.60
70079;DHT22;57451;52.496;13.456;2023-02-01T13:25:35;6.30;70.40
70079;DHT22;57451;52.496;13.456;2023-02-01T13:28:10;6.30;71.00
70079;DHT22;57451;52.496;13.456;2023-02-01T13:33:53;6.40;70.10
70079;DHT22;57451;52.496;13.456;2023-02-01T13:36:34;6.30;69.90
70079;DHT22;57451;52.496;13.456;2023-02-01T13:39:33;6.20;70.20
70079;DHT22;57451;52.496;13.456;2023-02-01T13:42:11;6.30;70.10
70079;DHT22;57451;52.496;13.456;2023-02-01T13:44:43;6.30;69.90
70079;DHT22;57451;52.496;13.456;2023-02-01T13:47:21;6.20;69.80
70079;DHT22;57451;52.496;13.456;2023-02-01T13:49:51;6.20;69.70
70079;DHT22;57451;52.496;13.456;2023-02-01T13:52:25;6.30;69.60
70079;DHT22;57451;52.496;13.456;2023-02-01T13:55:02;6.30;70.00
70079;DHT22;57451;52.496;13.456;2023-02-01T13:57:37;6.30;69.90
70079;DHT22;57451;52.496;13.456;2023-02-01T14:00:07;6.30;70.00
70079;DHT22;57451;52.496;13.456;2023-02-01T14:02:46;6.40;70.00
70079;DHT22;57451;52.496;13.456;2023-02-01T14:08:23;6.40;70.30
70079;DHT22;57451;52.496;13.456;2023-02-01T14:10:52;6.40;70.20
70079;DHT22;57451;52.496;13.456;2023-02-01T14:13:28;6.40;69.70
70079;DHT22;57451;52.496;13.456;2023-02-01T14:16:13;6.40;70.00
70079;DHT22;57451;52.496;13.456;2023-02-01T14:18:54;6.40;69.90
70079;DHT22;57451;52.496;13.456;2023-02-01T14:21:26;6.30;71.20
70079;DHT22;57451;52.496;13.456;2023-02-01T14:23:58;6.20;71.80
70079;DHT22;57451;52.496;13.456;2023-02-01T14:26:28;6.20;72.40
70079;DHT22;57451;52.496;13.456;2023-02-01T14:29:25;6.20;72.80
70079;DHT22;57451;52.496;13.456;2023-02-01T14:31:59;6.20;72.50
70079;DHT22;57451;52.496;13.456;2023-02-01T14:34:34;6.20;72.70
70079;DHT22;57451;52.496;13.456;2023-02-01T14:37:04;6.20;72.80
70079;DHT22;57451;52.496;13.456;2023-02-01T14:39:36;6.20;72.80
70079;DHT22;57451;52.496;13.456;2023-02-01T14:42:15;6.10;72.40
70079;DHT22;57451;52.496;13.456;2023-02-01T14:44:48;6.20;72.40
70079;DHT22;57451;52.496;13.456;2023-02-01T14:47:30;6.10;72.60
70079;DHT22;57451;52.496;13.456;2023-02-01T14:50:22;6.10;72.40
70079;DHT22;57451;52.496;13.456;2023-02-01T14:52:58;6.10;72.10
70079;DHT22;57451;52.496;13.456;2023-02-01T14:55:34;6.00;72.00
70079;DHT22;57451;52.496;13.456;2023-02-01T14:58:06;6.10;72.00
70079;DHT22;57451;52.496;13.456;2023-02-01T15:00:47;6.00;71.20
70079;DHT22;57451;52.496;13.456;2023-02-01T15:03:34;6.00;71.10
70079;DHT22;57451;52.496;13.456;2023-02-01T15:06:02;6.00;71.40
70079;DHT22;57451;52.496;13.456;2023-02-01T15:08:35;6.00;70.80
70079;DHT22;57451;52.496;13.456;2023-02-01T15:11:06;6.00;71.10
70079;DHT22;57451;52.496;13.456;2023-02-01T15:13:35;6.00;70.50
70079;DHT22;57451;52.496;13.456;2023-02-01T15:16:07;6.00;69.60
70079;DHT22;57451;52.496;13.456;2023-02-01T15:18:36;5.90;71.20
70079;DHT22;57451;52.496;13.456;2023-02-01T15:21:05;5.70;72.70
70079;DHT22;57451;52.496;13.456;2023-02-01T15:24:11;5.70;72.30
70079;DHT22;57451;52.496;13.456;2023-02-01T15:26:39;5.60;73.00
70079;DHT22;57451;52.496;13.456;2023-02-01T15:29:11;5.50;73.30
70079;DHT22;57451;52.496;13.456;2023-02-01T15:31:40;5.50;74.00
70079;DHT22;57451;52.496;13.456;2023-02-01T15:34:08;5.40;74.10
70079;DHT22;57451;52.496;13.456;2023-02-01T15:36:36;5.30;74.50
70079;DHT22;57451;52.496;13.456;2023-02-01T15:39:16;5.20;74.90
70079;DHT22;57451;52.496;13.456;2023-02-01T15:41:47;5.20;75.00
70079;DHT22;57451;52.496;13.456;2023-02-01T15:44:19;5.20;75.10
70079;DHT22;57451;52.496;13.456;2023-02-01T15:46:49;5.20;75.20
70079;DHT22;57451;52.496;13.456;2023-02-01T15:49:21;5.00;75.70
70079;DHT22;57451;52.496;13.456;2023-02-01T15:51:50;4.90;75.90
70079;DHT22;57451;52.496;13.456;2023-02-01T15:54:20;5.00;76.20
70079;DHT22;57451;52.496;13.456;2023-02-01T15:56:51;4.90;75.70
70079;DHT22;57451;52.496;13.456;2023-02-01T15:59:22;4.80;75.70
70079;DHT22;57451;52.496;13.456;2023-02-01T16:01:51;4.90;75.90
70079;DHT22;57451;52.496;13.456;2023-02-01T16:04:21;4.80;75.80
70079;DHT22;57451;52.496;13.456;2023-02-01T16:06:50;4.80;76.20
70079;DHT22;57451;52.496;13.456;2023-02-01T16:09:20;4.70;76.50
70079;DHT22;57451;52.496;13.456;2023-02-01T16:11:52;4.60;76.50